sensor_id;sensor_type;location;lat;lon;timestamp;pressure;altitude;pressure_sealevel;temperature;humidity
32330;BME280;18807;52.434;13.238;2023-03-14T00:03:09;98858.06;;;12.08;100.00
32330;BME280;18807;52.434;13.238;2023-03-14T00:10:45;98839.56;;;11.97;100.00
32330;BME280;18807;52.434;13.238;2023-03-14T00:18:19;98823.72;;;11.88;100.00
32330;BME280;18807;52.434;13.238;2023-03-14T00:25:58;98792.69;;;11.80;100.00
32330;BME280;18807;52.434;13.238;2023-03-14T00:33:33;98778.63;;;11.72;100.00
32330;BME280;18807;52.434;13.238;2023-03-14T00:41:10;98769.00;;;11.63;100.00
32330;BME280;18807;52.434;13.238;2023-03-14T00:49:01;98784.28;;;11.55;100.00
32330;BME280;18807;52.434;13.238;2023-03-14T00:56:37;98761.13;;;11.54;100.00
32330;BME280;18807;52.434;13.238;2023-03-14T01:04:11;98738.16;;;11.46;100.00
32330;BME280;18807;52.434;13.238;2023-03-14T01:11:46;98750.72;;;11.41;100.00
32330;BME280;18807;52.434;13.238;2023-03-14T01:19:38;98787.44;;;11.33;100.00
32330;BME280;18807;52.434;13.238;2023-03-14T01:27:15;98799.09;;;11.29;100.00
32330;BME280;18807;52.434;13.238;2023-03-14T01:34:49;98813.38;;;11.26;100.00
32330;BME280;18807;52.434;13.238;2023-03-14T01:42:25;98819.75;;;11.19;100.00
32330;BME280;18807;52.434;13.238;2023-03-14T01:50:02;98834.75;;;11.26;100.00
32330;BME280;18807;52.434;13.238;2023-03-14T01:57:41;98816.16;;;11.20;100.00
32330;BME280;18807;52.434;13.238;2023-03-14T02:05:20;98791.44;;;11.11;100.00
32330;BME280;18807;52.434;13.238;2023-03-14T02:12:59;98785.34;;;11.03;100.00
32330;BME280;18807;52.434;13.238;2023-03-14T02:20:38;98775.59;;;11.00;100.00
32330;BME280;18807;52.434;13.238;2023-03-14T02:28:18;98786.28;;;11.00;100.00
32330;BME280;18807;52.434;13.238;2023-03-14T02:35:53;98777.50;;;10.94;100.00
32330;BME280;18807;52.434;13.238;2023-03-14T02:43:31;98764.28;;;10.86;100.00
32330;BME280;18807;52.434;13.238;2023-03-14T02:51:06;98746.44;;;10.88;100.00
32330;BME280;18807;52.434;13.238;2023-03-14T02:58:43;98721.63;;;10.82;100.00
32330;BME280;18807;52.434;13.238;2023-03-14T03:06:17;98699.41;;;10.81;100.00
32330;BME280;18807;52.434;13.238;2023-03-14T03:13:52;98678.22;;;10.74;100.00
32330;BME280;18807;52.434;13.238;2023-03-14T03:21:26;98678.97;;;10.79;100.00
32330;BME280;18807;52.434;13.238;2023-03-14T03:29:02;98703.09;;;10.74;100.00
32330;BME280;18807;52.434;13.238;2023-03-14T03:36:36;98712.06;;;10.72;100.00
32330;BME280;18807;52.434;13.238;2023-03-14T03:44:12;98715.72;;;10.66;100.00
32330;BME280;18807;52.434;13.238;2023-03-14T03:51:46;98689.84;;;10.68;100.00
32330;BME280;18807;52.434;13.238;2023-03-14T03:59:21;98693.38;;;10.70;100.00
32330;BME280;18807;52.434;13.238;2023-03-14T04:06:55;98676.47;;;10.70;100.00
32330;BME280;18807;52.434;13.238;2023-03-14T04:14:31;98696.91;;;10.72;100.00
32330;BME280;18807;52.434;13.238;2023-03-14T04:22:05;98685.28;;;10.75;100.00
32330;BME280;18807;52.434;13.238;2023-03-14T04:29:40;98671.91;;;10.76;100.00
32330;BME280;18807;52.434;13.238;2023-03-14T04:37:14;98652.31;;;10.77;100.00
32330;BME280;18807;52.434;13.238;2023-03-14T04:44:50;98632.81;;;10.74;100.00
32330;BME280;18807;52.434;13.238;2023-03-14T04:52:24;98631.94;;;10.72;100.00
32330;BME280;18807;52.434;13.238;2023-03-14T04:59:59;98645.41;;;10.66;100.00
32330;BME280;18807;52.434;13.238;2023-03-14T05:07:34;98641.88;;;10.64;100.00
32330;BME280;18807;52.434;13.238;2023-03-14T05:15:09;98625.97;;;10.61;100.00
32330;BME280;18807;52.434;13.238;2023-03-14T05:22:44;98620.66;;;10.59;100.00
32330;BME280;18807;52.434;13.238;2023-03-14T05:30:19;98616.22;;;10.57;100.00
32330;BME280;18807;52.434;13.238;2023-03-14T05:37:54;98610.03;;;10.56;100.00
32330;BME280;18807;52.434;13.238;2023-03-14T05:45:29;98633.09;;;10.60;100.00
32330;BME280;18807;52.434;13.238;2023-03-14T05:53:06;98624.13;;;10.63;100.00
32330;BME280;18807;52.434;13.238;2023-03-14T06:00:41;98615.28;;;10.61;100.00
32330;BME280;18807;52.434;13.238;2023-03-14T06:08:15;98621.50;;;10.60;100.00
32330;BME280;18807;52.434;13.238;2023-03-14T06:15:51;98613.44;;;10.63;100.00
32330;BME280;18807;52.434;13.238;2023-03-14T06:23:25;98607.97;;;10.70;100.00
32330;BME280;18807;52.434;13.238;2023-03-14T06:31:00;98614.97;;;10.74;100.00
32330;BME280;18807;52.434;13.238;2023-03-14T06:38:34;98617.53;;;10.80;100.00
32330;BME280;18807;52.434;13.238;2023-03-14T06:46:09;98642.91;;;11.01;100.00
32330;BME280;18807;52.434;13.238;2023-03-14T06:53:43;98660.63;;;11.06;100.00
32330;BME280;18807;52.434;13.238;2023-03-14T07:01:22;98643.59;;;11.10;100.00
32330;BME280;18807;52.434;13.238;2023-03-14T07:08:57;98663.06;;;11.17;100.00
32330;BME280;18807;52.434;13.238;2023-03-14T07:16:33;98659.56;;;11.13;100.00
32330;BME280;18807;52.434;13.238;2023-03-14T07:24:07;98671.97;;;11.16;100.00
32330;BME280;18807;52.434;13.238;2023-03-14T07:31:43;98671.78;;;11.25;100.00
32330;BME280;18807;52.434;13.238;2023-03-14T07:39:17;98682.38;;;11.29;100.00
32330;BME280;18807;52.434;13.238;2023-03-14T07:46:52;98680.41;;;11.39;100.00
32330;BME280;18807;52.434;13.238;2023-03-14T07:54:27;98677.56;;;11.46;100.00
32330;BME280;18807;52.434;13.238;2023-03-14T08:02:03;98666.31;;;11.72;98.44
32330;BME280;18807;52.434;13.238;2023-03-14T08:09:38;98663.44;;;11.79;99.05
32330;BME280;18807;52.434;13.238;2023-03-14T08:17:13;98648.06;;;11.89;97.05
32330;BME280;18807;52.434;13.238;2023-03-14T08:24:47;98649.53;;;12.00;95.46
32330;BME280;18807;52.434;13.238;2023-03-14T08:32:22;98669.31;;;11.95;96.26
32330;BME280;18807;52.434;13.238;2023-03-14T08:39:57;98673.47;;;12.06;95.04
32330;BME280;18807;52.434;13.238;2023-03-14T08:47:32;98684.13;;;12.08;93.28
32330;BME280;18807;52.434;13.238;2023-03-14T08:55:08;98692.97;;;12.12;92.57
32330;BME280;18807;52.434;13.238;2023-03-14T09:02:43;98696.28;;;12.21;93.00
32330;BME280;18807;52.434;13.238;2023-03-14T09:10:35;98671.59;;;12.45;93.48
32330;BME280;18807;52.434;13.238;2023-03-14T09:18:12;98648.78;;;13.25;85.94
32330;BME280;18807;52.434;13.238;2023-03-14T09:25:46;98643.09;;;13.65;83.23
32330;BME280;18807;52.434;13.238;2023-03-14T09:33:40;98646.41;;;14.00;78.59
32330;BME280;18807;52.434;13.238;2023-03-14T09:41:16;98644.63;;;13.73;76.39
32330;BME280;18807;52.434;13.238;2023-03-14T09:48:52;98653.56;;;13.45;79.91
32330;BME280;18807;52.434;13.238;2023-03-14T09:56:30;98647.78;;;13.29;79.93
32330;BME280;18807;52.434;13.238;2023-03-14T10:04:12;98666.88;;;13.19;78.36
32330;BME280;18807;52.434;13.238;2023-03-14T10:12:08;98666.97;;;13.16;78.93
32330;BME280;18807;52.434;13.238;2023-03-14T10:19:54;98669.03;;;13.06;78.43
32330;BME280;18807;52.434;13.238;2023-03-14T10:27:30;98668.00;;;13.10;76.62
32330;BME280;18807;52.434;13.238;2023-03-14T10:35:18;98664.56;;;13.07;76.34
32330;BME280;18807;52.434;13.238;2023-03-14T10:43:13;98668.22;;;13.03;76.00
32330;BME280;18807;52.434;13.238;2023-03-14T10:50:54;98670.72;;;13.09;75.44
32330;BME280;18807;52.434;13.238;2023-03-14T10:58:30;98677.97;;;13.07;76.27
32330;BME280;18807;52.434;13.238;2023-03-14T11:06:12;98668.94;;;13.09;77.03
32330;BME280;18807;52.434;13.238;2023-03-14T11:13:55;98668.75;;;13.15;78.67
32330;BME280;18807;52.434;13.238;2023-03-14T11:21:36;98664.25;;;13.17;78.88
32330;BME280;18807;52.434;13.238;2023-03-14T11:29:19;98668.59;;;13.21;78.88
32330;BME280;18807;52.434;13.238;2023-03-14T11:36:59;98658.22;;;13.09;81.54
32330;BME280;18807;52.434;13.238;2023-03-14T11:44:37;98661.91;;;13.05;81.90
32330;BME280;18807;52.434;13.238;2023-03-14T11:52:17;98658.38;;;13.03;84.58
32330;BME280;18807;52.434;13.238;2023-03-14T11:59:58;98653.97;;;13.02;85.27
32330;BME280;18807;52.434;13.238;2023-03-14T12:07:41;98640.47;;;13.05;85.14
32330;BME280;18807;52.434;13.238;2023-03-14T12:15:24;98623.09;;;13.18;82.87
32330;BME280;18807;52.434;13.238;2023-03-14T12:23:04;98630.16;;;13.21;83.28
32330;BME280;18807;52.434;13.238;2023-03-14T12:30:40;98632.88;;;13.19;87.17
32330;BME280;18807;52.434;13.238;2023-03-14T12:38:23;98618.72;;;13.16;93.28
32330;BME280;18807;52.434;13.238;2023-03-14T12:46:08;98606.13;;;13.18;86.03
32330;BME280;18807;52.434;13.238;2023-03-14T13:01:54;98628.03;;;12.71;100.00
32330;BME280;18807;52.434;13.238;2023-03-14T13:09:52;98614.78;;;12.34;100.00
32330;BME280;18807;52.434;13.238;2023-03-14T13:17:30;98616.72;;;12.28;100.00
32330;BME280;18807;52.434;13.238;2023-03-14T13:25:10;98592.34;;;12.38;100.00
32330;BME280;18807;52.434;13.238;2023-03-14T13:32:46;98568.66;;;12.55;100.00
32330;BME280;18807;52.434;13.238;2023-03-14T13:40:28;98575.59;;;12.93;92.64
32330;BME280;18807;52.434;13.238;2023-03-14T13:48:03;98573.56;;;13.02;91.46
32330;BME280;18807;52.434;13.238;2023-03-14T13:55:38;98569.03;;;13.33;89.00
32330;BME280;18807;52.434;13.238;2023-03-14T14:03:13;98564.13;;;13.46;87.76
32330;BME280;18807;52.434;13.238;2023-03-14T14:10:49;98556.78;;;13.52;87.49
32330;BME280;18807;52.434;13.238;2023-03-14T14:18:25;98548.59;;;13.57;86.31
32330;BME280;18807;52.434;13.238;2023-03-14T14:26:05;98544.91;;;13.59;86.08
32330;BME280;18807;52.434;13.238;2023-03-14T14:33:43;98558.19;;;13.64;86.86
32330;BME280;18807;52.434;13.238;2023-03-14T14:41:18;98561.56;;;13.70;85.26
32330;BME280;18807;52.434;13.238;2023-03-14T14:48:55;98563.63;;;13.61;87.38
32330;BME280;18807;52.434;13.238;2023-03-14T14:56:35;98555.69;;;13.58;86.34
32330;BME280;18807;52.434;13.238;2023-03-14T15:04:11;98571.22;;;13.48;86.59
32330;BME280;18807;52.434;13.238;2023-03-14T15:11:49;98691.13;;;11.77;93.87
32330;BME280;18807;52.434;13.238;2023-03-14T15:19:25;98739.78;;;7.71;100.00
32330;BME280;18807;52.434;13.238;2023-03-14T15:27:03;98845.44;;;6.97;100.00
32330;BME280;18807;52.434;13.238;2023-03-14T15:34:37;98894.94;;;6.30;100.00
32330;BME280;18807;52.434;13.238;2023-03-14T15:42:12;98928.31;;;5.72;100.00
32330;BME280;18807;52.434;13.238;2023-03-14T15:49:46;98963.31;;;5.20;100.00
32330;BME280;18807;52.434;13.238;2023-03-14T15:57:21;99030.16;;;5.00;100.00
32330;BME280;18807;52.434;13.238;2023-03-14T16:04:56;99093.59;;;4.21;100.00
32330;BME280;18807;52.434;13.238;2023-03-14T16:12:32;99168.31;;;3.55;100.00
32330;BME280;18807;52.434;13.238;2023-03-14T16:20:24;99211.47;;;2.67;100.00
32330;BME280;18807;52.434;13.238;2023-03-14T16:28:17;99192.47;;;2.41;100.00
32330;BME280;18807;52.434;13.238;2023-03-14T16:35:55;99232.56;;;2.28;100.00
32330;BME280;18807;52.434;13.238;2023-03-14T16:43:30;99268.34;;;2.20;100.00
32330;BME280;18807;52.434;13.238;2023-03-14T16:51:23;99332.34;;;2.16;100.00
32330;BME280;18807;52.434;13.238;2023-03-14T16:58:58;99372.03;;;2.24;100.00
32330;BME280;18807;52.434;13.238;2023-03-14T17:06:32;99406.97;;;2.17;100.00
32330;BME280;18807;52.434;13.238;2023-03-14T17:14:08;99441.50;;;2.29;100.00
32330;BME280;18807;52.434;13.238;2023-03-14T17:21:42;99483.22;;;2.45;100.00
32330;BME280;18807;52.434;13.238;2023-03-14T17:29:17;99516.81;;;2.53;100.00
32330;BME280;18807;52.434;13.238;2023-03-14T17:37:08;99517.00;;;2.61;100.00
32330;BME280;18807;52.434;13.238;2023-03-14T17:44:43;99547.31;;;2.78;100.00
32330;BME280;18807;52.434;13.238;2023-03-14T17:52:19;99592.66;;;2.97;100.00
32330;BME280;18807;52.434;13.238;2023-03-14T17:59:54;99605.09;;;3.03;100.00
32330;BME280;18807;52.434;13.238;2023-03-14T18:07:28;99630.72;;;3.07;100.00
32330;BME280;18807;52.434;13.238;2023-03-14T18:15:05;99658.16;;;3.15;100.00
32330;BME280;18807;52.434;13.238;2023-03-14T18:22:39;99679.50;;;3.24;100.00
32330;BME280;18807;52.434;13.238;2023-03-14T18:30:15;99683.16;;;3.29;100.00
32330;BME280;18807;52.434;13.238;2023-03-14T18:38:09;99700.16;;;3.40;100.00
32330;BME280;18807;52.434;13.238;2023-03-14T18:45:44;99724.72;;;3.37;100.00
32330;BME280;18807;52.434;13.238;2023-03-14T18:53:18;99753.00;;;3.43;100.00
32330;BME280;18807;52.434;13.238;2023-03-14T19:00:56;99764.56;;;3.46;100.00
32330;BME280;18807;52.434;13.238;2023-03-14T19:08:47;99780.47;;;3.49;100.00
32330;BME280;18807;52.434;13.238;2023-03-14T19:16:40;99804.22;;;3.49;100.00
32330;BME280;18807;52.434;13.238;2023-03-14T19:24:31;99828.06;;;3.52;100.00
32330;BME280;18807;52.434;13.238;2023-03-14T19:32:09;99845.69;;;3.53;100.00
32330;BME280;18807;52.434;13.238;2023-03-14T19:39:43;99866.50;;;3.43;100.00
32330;BME280;18807;52.434;13.238;2023-03-14T19:47:19;99887.66;;;3.44;100.00
32330;BME280;18807;52.434;13.238;2023-03-14T19:54:53;99913.81;;;3.37;100.00
32330;BME280;18807;52.434;13.238;2023-03-14T20:02:30;99938.28;;;3.31;100.00
32330;BME280;18807;52.434;13.238;2023-03-14T20:10:05;99955.69;;;3.25;100.00
32330;BME280;18807;52.434;13.238;2023-03-14T20:17:41;99967.06;;;3.24;100.00
32330;BME280;18807;52.434;13.238;2023-03-14T20:25:16;99988.03;;;3.19;100.00
32330;BME280;18807;52.434;13.238;2023-03-14T20:32:52;100010.72;;;3.13;100.00
32330;BME280;18807;52.434;13.238;2023-03-14T20:40:26;100030.81;;;3.09;100.00
32330;BME280;18807;52.434;13.238;2023-03-14T20:48:02;100039.47;;;3.05;100.00
32330;BME280;18807;52.434;13.238;2023-03-14T20:55:36;100062.25;;;3.03;100.00
32330;BME280;18807;52.434;13.238;2023-03-14T21:03:12;100069.16;;;3.00;100.00
32330;BME280;18807;52.434;13.238;2023-03-14T21:10:47;100086.69;;;2.98;100.00
32330;BME280;18807;52.434;13.238;2023-03-14T21:18:23;100098.81;;;2.93;100.00
32330;BME280;18807;52.434;13.238;2023-03-14T21:25:57;100114.47;;;2.88;100.00
32330;BME280;18807;52.434;13.238;2023-03-14T21:33:33;100137.22;;;2.85;100.00
32330;BME280;18807;52.434;13.238;2023-03-14T21:41:07;100143.09;;;2.78;100.00
32330;BME280;18807;52.434;13.238;2023-03-14T21:49:00;100158.81;;;2.75;100.00
32330;BME280;18807;52.434;13.238;2023-03-14T21:56:34;100154.00;;;2.63;100.00
32330;BME280;18807;52.434;13.238;2023-03-14T22:04:09;100161.84;;;2.62;100.00
32330;BME280;18807;52.434;13.238;2023-03-14T22:11:43;100170.72;;;2.64;100.00
32330;BME280;18807;52.434;13.238;2023-03-14T22:19:19;100175.72;;;2.56;100.00
32330;BME280;18807;52.434;13.238;2023-03-14T22:26:54;100188.88;;;2.56;100.00
32330;BME280;18807;52.434;13.238;2023-03-14T22:34:29;100207.41;;;2.58;100.00
32330;BME280;18807;52.434;13.238;2023-03-14T22:42:04;100232.06;;;2.60;100.00
32330;BME280;18807;52.434;13.238;2023-03-14T22:49:39;100246.94;;;2.58;100.00
32330;BME280;18807;52.434;13.238;2023-03-14T22:57:13;100253.56;;;2.48;100.00
32330;BME280;18807;52.434;13.238;2023-03-14T23:04:49;100257.06;;;2.47;100.00
32330;BME280;18807;52.434;13.238;2023-03-14T23:12:23;100268.41;;;2.45;100.00
32330;BME280;18807;52.434;13.238;2023-03-14T23:19:58;100268.28;;;2.42;100.00
32330;BME280;18807;52.434;13.238;2023-03-14T23:27:33;100276.88;;;2.38;100.00
32330;BME280;18807;52.434;13.238;2023-03-14T23:35:09;100291.75;;;2.36;100.00
32330;BME280;18807;52.434;13.238;2023-03-14T23:42:44;100312.63;;;2.31;100.00
32330;BME280;18807;52.434;13.238;2023-03-14T23:50:19;100317.66;;;2.25;100.00
32330;BME280;18807;52.434;13.238;2023-03-14T23:57:53;100331.78;;;2.27;100.00
